createdAt,value
2022-12-18T00:02:03.155Z,93262.03
2022-12-18T00:05:08.153Z,93257.75
2022-12-18T00:08:11.797Z,93270.31
2022-12-18T00:11:21.244Z,93256.00
2022-12-18T00:14:26.052Z,93258.97
2022-12-18T00:17:29.013Z,93262.31
2022-12-18T00:20:32.226Z,93272.41
2022-12-18T00:23:37.398Z,93264.88
2022-12-18T00:26:41.351Z,93266.38
2022-12-18T00:29:45.054Z,93260.88
2022-12-18T00:32:48.143Z,93266.28
2022-12-18T00:35:51.173Z,93259.56
2022-12-18T00:38:58.728Z,93264.31
2022-12-18T00:42:20.349Z,93268.50
2022-12-18T00:45:29.721Z,93258.75
2022-12-18T00:48:33.694Z,93261.47
2022-12-18T00:51:37.560Z,93264.31
2022-12-18T00:54:41.027Z,93266.97
2022-12-18T00:57:44.848Z,93260.25
2022-12-18T01:00:48.809Z,93262.69
2022-12-18T01:03:52.200Z,93266.00
2022-12-18T01:06:57.479Z,93259.56
2022-12-18T01:10:00.895Z,93255.16
2022-12-18T01:13:04.269Z,93256.84
2022-12-18T01:16:07.761Z,93261.94
2022-12-18T01:19:11.693Z,93260.66
2022-12-18T01:22:14.787Z,93266.69
2022-12-18T01:25:18.579Z,93270.25
2022-12-18T01:28:21.598Z,93282.69
2022-12-18T01:31:31.062Z,93270.28
2022-12-18T01:34:36.225Z,93273.06
2022-12-18T01:37:40.336Z,93278.09
2022-12-18T01:40:44.574Z,93281.00
2022-12-18T01:43:58.952Z,93282.84
2022-12-18T01:47:02.950Z,93282.47
2022-12-18T01:50:32.475Z,93276.34
2022-12-18T01:53:35.894Z,93286.63
2022-12-18T01:56:39.486Z,93276.91
2022-12-18T01:59:47.519Z,93280.72
2022-12-18T02:02:51.471Z,93286.78
2022-12-18T02:06:14.474Z,93293.25
2022-12-18T02:09:27.300Z,93293.63
2022-12-18T02:13:04.918Z,93289.53
2022-12-18T02:16:40.738Z,93296.53
2022-12-18T02:20:00.901Z,93291.91
2022-12-18T02:23:28.736Z,93291.88
2022-12-18T02:26:40.193Z,93288.56
2022-12-18T02:29:58.596Z,93296.00
2022-12-18T02:33:08.543Z,93293.78
2022-12-18T02:36:13.561Z,93290.31
2022-12-18T02:39:19.983Z,93294.53
2022-12-18T02:42:34.372Z,93284.06
2022-12-18T02:45:55.904Z,93283.44
2022-12-18T02:49:08.536Z,93288.38
2022-12-18T02:52:35.939Z,93286.78
2022-12-18T02:56:00.910Z,93280.97
2022-12-18T02:59:15.436Z,93277.94
2022-12-18T03:02:28.332Z,93274.19
2022-12-18T03:05:58.288Z,93265.13
2022-12-18T03:09:08.173Z,93269.56
2022-12-18T03:12:24.268Z,93268.88
2022-12-18T03:15:36.529Z,93262.06
2022-12-18T03:18:49.265Z,93261.38
2022-12-18T03:21:57.478Z,93270.25
2022-12-18T03:25:05.736Z,93260.22
2022-12-18T03:28:13.908Z,93264.19
2022-12-18T03:31:19.313Z,93262.34
2022-12-18T03:34:31.460Z,93258.13
2022-12-18T03:37:38.968Z,93249.50
2022-12-18T03:40:46.890Z,93256.00
2022-12-18T03:43:54.074Z,93254.84
2022-12-18T03:47:12.245Z,93247.63
2022-12-18T03:50:24.680Z,93244.84
2022-12-18T03:53:45.860Z,93250.19
2022-12-18T03:56:55.950Z,93244.56
2022-12-18T04:00:06.225Z,93242.94
2022-12-18T04:03:22.695Z,93233.88
2022-12-18T04:06:32.046Z,93243.84
2022-12-18T04:09:40.586Z,93243.63
2022-12-18T04:12:45.915Z,93234.06
2022-12-18T04:15:51.077Z,93237.34
2022-12-18T04:18:56.528Z,93234.56
2022-12-18T04:22:01.649Z,93240.56
2022-12-18T04:25:08.671Z,93237.53
2022-12-18T04:28:15.871Z,93237.53
2022-12-18T04:31:20.056Z,93235.03
2022-12-18T04:34:24.061Z,93234.06
2022-12-18T04:37:30.313Z,93228.91
2022-12-18T04:40:33.565Z,93220.75
2022-12-18T04:43:41.779Z,93218.47
2022-12-18T04:46:45.701Z,93217.78
2022-12-18T04:49:49.158Z,93203.06
2022-12-18T04:52:52.294Z,93205.16
2022-12-18T04:56:24.833Z,93194.00
2022-12-18T04:59:27.919Z,93199.34
2022-12-18T05:02:31.168Z,93195.09
2022-12-18T05:05:36.874Z,93189.91
2022-12-18T05:08:40.546Z,93192.00
2022-12-18T05:11:44.873Z,93199.00
2022-12-18T05:14:50.726Z,93195.22
2022-12-18T05:17:54.476Z,93185.38
2022-12-18T05:20:58.727Z,93187.19
2022-12-18T05:24:02.081Z,93189.78
2022-12-18T05:27:05.863Z,93196.28
2022-12-18T05:30:10.079Z,93192.72
2022-12-18T05:33:13.767Z,93189.94
2022-12-18T05:36:16.934Z,93176.19
2022-12-18T05:39:20.431Z,93182.03
2022-12-18T05:42:25.286Z,93189.88
2022-12-18T05:45:29.235Z,93184.00
2022-12-18T05:48:32.999Z,93190.72
2022-12-18T05:51:36.997Z,93186.88
2022-12-18T05:54:41.180Z,93190.69
2022-12-18T05:57:45.190Z,93188.34
2022-12-18T06:00:49.045Z,93190.72
2022-12-18T06:03:52.253Z,93197.78
2022-12-18T06:06:56.308Z,93185.94
2022-12-18T06:10:00.508Z,93194.47
2022-12-18T06:13:04.572Z,93199.91
2022-12-18T06:16:09.905Z,93197.31
2022-12-18T06:19:17.398Z,93204.44
2022-12-18T06:22:21.493Z,93220.13
2022-12-18T06:25:25.307Z,93217.03
2022-12-18T06:28:29.022Z,93192.97
2022-12-18T06:31:32.746Z,93199.03
2022-12-18T06:34:38.918Z,93200.56
2022-12-18T06:37:42.338Z,93216.59
2022-12-18T06:40:46.556Z,93217.78
2022-12-18T06:43:51.666Z,93212.03
2022-12-18T06:46:57.330Z,93203.69
2022-12-18T06:50:00.414Z,93197.91
2022-12-18T06:53:03.858Z,93198.75
2022-12-18T06:56:10.695Z,93200.25
2022-12-18T06:59:16.396Z,93202.00
2022-12-18T07:02:20.372Z,93205.34
2022-12-18T07:05:24.817Z,93197.69
2022-12-18T07:08:30.236Z,93192.69
2022-12-18T07:11:35.360Z,93195.97
2022-12-18T07:14:38.503Z,93202.81
2022-12-18T07:17:42.281Z,93207.34
2022-12-18T07:20:45.932Z,93207.69
2022-12-18T07:23:52.125Z,93212.13
2022-12-18T07:26:55.112Z,93202.72
2022-12-18T07:29:59.079Z,93206.19
2022-12-18T07:33:02.247Z,93205.00
2022-12-18T07:36:08.504Z,93203.69
2022-12-18T07:39:14.135Z,93204.72
2022-12-18T07:42:33.247Z,93211.75
2022-12-18T07:45:36.375Z,93215.16
2022-12-18T07:48:40.418Z,93210.94
2022-12-18T07:51:44.038Z,93209.88
2022-12-18T07:54:50.860Z,93219.97
2022-12-18T07:57:57.775Z,93220.72
2022-12-18T08:01:10.276Z,93218.88
2022-12-18T08:04:14.698Z,93217.75
2022-12-18T08:07:18.066Z,93228.03
2022-12-18T08:10:22.099Z,93229.22
2022-12-18T08:13:25.966Z,93228.28
2022-12-18T08:16:29.942Z,93225.28
2022-12-18T08:19:34.272Z,93223.41
2022-12-18T08:22:39.574Z,93228.06
2022-12-18T08:25:42.848Z,93232.25
2022-12-18T08:28:45.953Z,93228.53
2022-12-18T08:31:49.655Z,93228.03
2022-12-18T08:34:53.432Z,93234.56
2022-12-18T08:37:57.464Z,93236.88
2022-12-18T08:41:02.053Z,93245.50
2022-12-18T08:44:24.230Z,93243.63
2022-12-18T08:47:27.642Z,93250.13
2022-12-18T08:50:31.659Z,93250.78
2022-12-18T08:53:36.185Z,93254.47
2022-12-18T08:56:40.065Z,93253.53
2022-12-18T08:59:43.397Z,93257.25
2022-12-18T09:02:46.739Z,93252.78
2022-12-18T09:05:50.477Z,93268.16
2022-12-18T09:08:53.538Z,93260.44
2022-12-18T09:11:56.903Z,93258.13
2022-12-18T09:15:00.636Z,93258.81
2022-12-18T09:18:04.691Z,93263.00
2022-12-18T09:21:13.581Z,93265.97
2022-12-18T09:24:18.232Z,93252.66
2022-12-18T09:27:21.977Z,93258.03
2022-12-18T09:30:26.094Z,93256.91
2022-12-18T09:33:29.615Z,93257.78
2022-12-18T09:36:32.657Z,93260.56
2022-12-18T09:39:35.694Z,93246.16
2022-12-18T09:42:38.977Z,93253.53
2022-12-18T09:45:49.436Z,93260.44
2022-12-18T09:48:54.306Z,93259.97
2022-12-18T09:52:19.444Z,93260.91
2022-12-18T09:55:41.441Z,93266.50
2022-12-18T09:58:59.056Z,93271.25
2022-12-18T10:02:18.104Z,93261.03
2022-12-18T10:05:53.782Z,93269.38
2022-12-18T10:09:11.841Z,93271.00
2022-12-18T10:12:41.332Z,93252.41
2022-12-18T10:15:47.031Z,93269.13
2022-12-18T10:18:58.731Z,93271.16
2022-12-18T10:22:19.735Z,93264.44
2022-12-18T10:25:51.118Z,93267.22
2022-12-18T10:28:57.692Z,93271.41
2022-12-18T10:32:04.181Z,93271.84
2022-12-18T10:35:22.775Z,93258.84
2022-12-18T10:38:27.846Z,93271.16
2022-12-18T10:41:32.472Z,93279.56
2022-12-18T10:44:36.401Z,93271.53
2022-12-18T10:47:48.250Z,93263.31
2022-12-18T10:54:19.418Z,93274.97
2022-12-18T10:57:43.084Z,93274.28
2022-12-18T11:00:46.830Z,93273.72
2022-12-18T11:04:01.841Z,93272.31
2022-12-18T11:07:08.835Z,93273.88
2022-12-18T11:10:19.619Z,93261.66
2022-12-18T11:13:26.323Z,93272.78
2022-12-18T11:16:32.380Z,93259.56
2022-12-18T11:19:39.726Z,93268.38
2022-12-18T11:22:42.899Z,93271.09
2022-12-18T11:25:58.560Z,93261.09
2022-12-18T11:29:18.696Z,93257.19
2022-12-18T11:32:33.422Z,93279.28
2022-12-18T11:35:53.848Z,93273.56
2022-12-18T11:38:59.674Z,93257.28
2022-12-18T11:42:45.997Z,93262.19
2022-12-18T11:45:57.099Z,93268.44
2022-12-18T11:49:06.350Z,93270.06
2022-12-18T11:52:21.836Z,93275.53
2022-12-18T11:55:37.745Z,93282.94
2022-12-18T11:58:53.275Z,93275.03
2022-12-18T12:02:17.112Z,93275.28
2022-12-18T12:05:31.415Z,93270.25
2022-12-18T12:09:11.526Z,93274.75
2022-12-18T12:12:26.741Z,93269.13
2022-12-18T12:16:08.356Z,93261.47
2022-12-18T12:19:32.782Z,93261.34
2022-12-18T12:22:42.754Z,93259.22
2022-12-18T12:25:50.080Z,93259.31
2022-12-18T12:29:09.230Z,93269.13
2022-12-18T12:32:35.550Z,93259.75
2022-12-18T12:36:15.011Z,93261.19
2022-12-18T12:39:24.437Z,93259.44
2022-12-18T12:42:45.615Z,93246.91
2022-12-18T12:45:55.198Z,93244.25
2022-12-18T12:49:03.126Z,93246.47
2022-12-18T12:52:13.334Z,93249.03
2022-12-18T12:55:35.852Z,93246.75
2022-12-18T12:58:48.546Z,93246.34
2022-12-18T13:02:01.059Z,93239.56
2022-12-18T13:05:23.099Z,93248.44
2022-12-18T13:08:35.446Z,93244.94
2022-12-18T13:12:02.878Z,93240.91
2022-12-18T13:15:25.031Z,93239.41
2022-12-18T13:18:30.570Z,93238.50
2022-12-18T13:21:37.046Z,93228.41
2022-12-18T13:24:41.012Z,93218.69
2022-12-18T13:27:45.242Z,93219.91
2022-12-18T13:30:51.729Z,93213.91
2022-12-18T13:34:31.157Z,93218.91
2022-12-18T13:37:43.960Z,93213.16
2022-12-18T13:40:50.172Z,93217.00
2022-12-18T13:44:13.666Z,93209.97
2022-12-18T13:47:39.530Z,93212.81
2022-12-18T13:50:43.000Z,93214.50
2022-12-18T13:53:53.166Z,93213.13
2022-12-18T13:56:57.281Z,93212.75
2022-12-18T14:00:18.424Z,93198.72
2022-12-18T14:03:30.540Z,93205.91
2022-12-18T14:06:34.621Z,93197.38
2022-12-18T14:09:48.453Z,93203.88
2022-12-18T14:13:01.009Z,93198.66
2022-12-18T14:16:09.514Z,93189.53
2022-12-18T14:19:17.402Z,93191.91
2022-12-18T14:22:22.711Z,93197.78
2022-12-18T14:25:28.148Z,93197.06
2022-12-18T14:28:32.972Z,93193.88
2022-12-18T14:31:35.970Z,93199.75
2022-12-18T14:34:39.909Z,93193.16
2022-12-18T14:37:43.585Z,93195.94
2022-12-18T14:40:46.523Z,93199.63
2022-12-18T14:43:52.036Z,93189.91
2022-12-18T14:46:55.789Z,93190.00
2022-12-18T14:49:59.878Z,93189.38
2022-12-18T14:53:03.686Z,93197.34
2022-12-18T14:56:19.726Z,93201.03
2022-12-18T14:59:26.487Z,93194.72
2022-12-18T15:02:31.059Z,93190.94
2022-12-18T15:05:34.825Z,93202.31
2022-12-18T15:08:38.998Z,93194.66
2022-12-18T15:11:41.846Z,93193.19
2022-12-18T15:14:45.664Z,93188.66
2022-12-18T15:17:48.928Z,93188.97
2022-12-18T15:20:58.511Z,93187.22
2022-12-18T15:24:02.096Z,93176.88
2022-12-18T15:27:05.246Z,93187.38
2022-12-18T15:30:11.793Z,93181.44
2022-12-18T15:33:26.262Z,93171.19
2022-12-18T15:36:31.569Z,93176.34
2022-12-18T15:39:34.678Z,93167.25
2022-12-18T15:42:56.619Z,93169.75
2022-12-18T15:45:59.775Z,93171.25
2022-12-18T15:49:04.880Z,93161.97
2022-12-18T15:52:13.190Z,93174.97
2022-12-18T15:55:40.260Z,93172.50
2022-12-18T15:58:44.675Z,93168.03
2022-12-18T16:01:51.687Z,93167.25
2022-12-18T16:04:55.716Z,93163.03
2022-12-18T16:08:00.224Z,93160.97
2022-12-18T16:11:04.172Z,93162.81
2022-12-18T16:14:12.672Z,93160.00
2022-12-18T16:17:16.878Z,93159.44
2022-12-18T16:20:24.276Z,93149.22
2022-12-18T16:23:29.066Z,93157.97
2022-12-18T16:26:32.722Z,93149.47
2022-12-18T16:29:36.672Z,93143.16
2022-12-18T16:32:40.037Z,93149.91
2022-12-18T16:35:43.886Z,93141.47
2022-12-18T16:38:47.317Z,93138.16
2022-12-18T16:41:51.406Z,93139.38
2022-12-18T16:44:55.005Z,93142.97
2022-12-18T16:47:58.636Z,93139.63
2022-12-18T16:51:04.225Z,93137.41
2022-12-18T16:54:10.914Z,93132.31
2022-12-18T16:57:19.105Z,93139.81
2022-12-18T17:00:22.180Z,93140.50
2022-12-18T17:03:26.368Z,93141.78
2022-12-18T17:06:33.444Z,93139.81
2022-12-18T17:09:37.305Z,93138.09
2022-12-18T17:12:40.636Z,93145.22
2022-12-18T17:15:44.302Z,93139.06
2022-12-18T17:18:48.024Z,93134.59
2022-12-18T17:21:52.453Z,93139.13
2022-12-18T17:24:55.741Z,93137.88
2022-12-18T17:27:58.785Z,93133.22
2022-12-18T17:31:02.857Z,93134.91
2022-12-18T17:34:06.057Z,93135.59
2022-12-18T17:37:10.160Z,93134.22
2022-12-18T17:40:13.955Z,93131.84
2022-12-18T17:43:17.099Z,93132.78
2022-12-18T17:46:20.642Z,93134.22
2022-12-18T17:49:24.785Z,93128.19
2022-12-18T17:52:28.177Z,93132.47
2022-12-18T17:55:32.376Z,93130.34
2022-12-18T17:58:40.162Z,93130.63
2022-12-18T18:01:45.455Z,93129.81
2022-12-18T18:04:49.349Z,93127.97
2022-12-18T18:07:52.316Z,93125.72
2022-12-18T18:11:17.103Z,93131.34
2022-12-18T18:14:21.877Z,93138.75
2022-12-18T18:17:25.437Z,93137.38
2022-12-18T18:20:30.952Z,93133.50
2022-12-18T18:23:35.486Z,93137.56
2022-12-18T18:26:39.671Z,93137.38
2022-12-18T18:29:42.966Z,93139.75
2022-12-18T18:32:45.890Z,93141.06
2022-12-18T18:35:56.293Z,93126.31
2022-12-18T18:39:01.150Z,93135.53
2022-12-18T18:42:05.052Z,93136.25
2022-12-18T18:45:09.313Z,93123.94
2022-12-18T18:48:14.946Z,93120.41
2022-12-18T18:51:21.154Z,93119.38
2022-12-18T18:54:26.366Z,93115.72
2022-12-18T18:57:30.707Z,93111.44
2022-12-18T19:00:34.816Z,93111.53
2022-12-18T19:03:39.417Z,93109.06
2022-12-18T19:06:43.681Z,93110.81
2022-12-18T19:09:52.438Z,93108.97
2022-12-18T19:13:13.879Z,93107.31
2022-12-18T19:16:19.557Z,93110.75
2022-12-18T19:19:22.944Z,93105.41
2022-12-18T19:22:26.107Z,93104.34
2022-12-18T19:25:40.547Z,93100.41
2022-12-18T19:28:45.822Z,93099.41
2022-12-18T19:31:50.526Z,93108.84
2022-12-18T19:34:54.532Z,93112.22
2022-12-18T19:37:57.973Z,93108.91
2022-12-18T19:41:04.665Z,93103.81
2022-12-18T19:44:09.005Z,93101.34
2022-12-18T19:47:13.278Z,93091.66
2022-12-18T19:50:16.903Z,93090.84
2022-12-18T19:53:20.325Z,93091.63
2022-12-18T19:56:26.736Z,93089.81
2022-12-18T19:59:29.906Z,93094.38
2022-12-18T20:02:37.333Z,93091.28
2022-12-18T20:05:40.470Z,93082.97
